KEFDKLFK

Guest
Details From KEFD - Ellington Fld
To KLFK - Angelina Co
Flight Number -
Tags Generated
Created
Modified
Stats Distance 99 nm / 184 km
Max Altitude 0 ft / 0 m
Waypoints 2
Social Downloads 0
Likes 0
Share VATSIM

Download

Looking for another format? Having issues loading an existing format? Contact us
Advertisement - Login to hide

Notes

Generated

Route

KEFD KLFK

ID Type Via Altitude Latitude Longitude Leg Dist Tot Dist Heading (true) Name
O KEFD APT - 0 ft / 0 m 29.61847˚ -95.15621˚ - 0 nm - -
O KLFK APT - 0 ft / 0 m 31.23690˚ -94.75345˚ 99 nm 99 nm 12° / 12° -

Altitude Profile

Advertisement - Login to hide

KEFD

Details ICAO KEFD (EFD)
Name ELLINGTON FLD
Region United States
Timezone America/Chicago (UTC-6.0)
Stats Elevation 32 ft / 10 m (AMSL)
Location 29.608067° -95.158146°
Runways 3
Magnetic Variation 2.368° E

METAR

Not found

TAF

TAF KEFD 140400Z 1404/1510 VRB06KT 9999 FEW200 QNH2995INS BECMG 1502/1503 01009KT 9999 SCT050 QNH3004INS TX18/1421Z TN08/1412Z

Decode

Departure Runways

ID Width Length Bearing (true) Bearing (mag) Surface Threshold Offset Overrun Length
04 150 ft / 46 m 8,008 ft / 2,441 m 43.70° 41.33° Concrete 0 ft / 0 m 400 ft / 122 m
17L 75 ft / 23 m 4,625 ft / 1,410 m 178.86° 176.49° Concrete 0 ft / 0 m 0 ft / 0 m
17R 150 ft / 46 m 9,031 ft / 2,753 m 178.84° 176.47° Concrete 0 ft / 0 m 1,001 ft / 305 m
22 150 ft / 46 m 8,008 ft / 2,441 m 223.71° 221.34° Concrete 0 ft / 0 m 1,014 ft / 309 m
35L 150 ft / 46 m 9,031 ft / 2,753 m 358.84° 356.47° Concrete 0 ft / 0 m 1,001 ft / 305 m
35R 75 ft / 23 m 4,625 ft / 1,410 m 358.86° 356.49° Concrete 0 ft / 0 m 0 ft / 0 m

KLFK

Details ICAO KLFK (LFK)
Name Angelina Co
Region United States
Timezone America/Chicago (UTC-6.0)
Stats Elevation 296 ft / 90 m (AMSL)
Location 31.233746° -94.750106°
Runways 2
Magnetic Variation 2.067° E

METAR

KLFK 140953Z AUTO 00000KT 10SM CLR 04/03 A2992 RMK AO2 SLP132 T00440028

Decode

TAF

KLFK 140524Z 1406/1506 VRB04KT P6SM OVC250 FM142200 34004KT P6SM OVC250 FM150000 36004KT P6SM OVC250

Decode

Destination Runways

ID Width Length Bearing (true) Bearing (mag) Surface Threshold Offset Overrun Length
07 98 ft / 30 m 5,390 ft / 1,643 m 75.18° 73.11° Asphalt 0 ft / 0 m 0 ft / 0 m
15 98 ft / 30 m 4,320 ft / 1,317 m 160.33° 158.26° Asphalt 0 ft / 0 m 295 ft / 90 m
25 98 ft / 30 m 5,390 ft / 1,643 m 255.18° 253.11° Asphalt 0 ft / 0 m 0 ft / 0 m
33 98 ft / 30 m 4,320 ft / 1,317 m 340.33° 338.26° Asphalt 105 ft / 32 m 295 ft / 90 m

Approach Navaids

Runway Type Ident Frequency Range Bearing (true) Bearing (mag) Slope Elevation
07 Localiser ILFK 111.30 MHz 18 nm / 33 km 75.19° 73.12° - 296 ft / 90 m (AMSL)
07 Glidescope ILFK 111.30 MHz 10 nm / 19 km 75.18° 73.11° 3.00° 284 ft / 87 m (AMSL)